sensor_id;sensor_type;location;lat;lon;timestamp;pressure;altitude;pressure_sealevel;temperature;humidity
42587;BME280;28216;53.362;-6.288;2023-04-27T00:00:21;101313.44;;;10.74;100.00
42587;BME280;28216;53.362;-6.288;2023-04-27T00:02:46;101315.94;;;10.76;100.00
42587;BME280;28216;53.362;-6.288;2023-04-27T00:05:12;101310.53;;;10.77;100.00
42587;BME280;28216;53.362;-6.288;2023-04-27T00:07:37;101310.38;;;10.79;100.00
42587;BME280;28216;53.362;-6.288;2023-04-27T00:10:03;101311.06;;;10.81;100.00
42587;BME280;28216;53.362;-6.288;2023-04-27T00:12:29;101316.84;;;10.85;100.00
42587;BME280;28216;53.362;-6.288;2023-04-27T00:14:54;101316.22;;;10.73;100.00
42587;BME280;28216;53.362;-6.288;2023-04-27T00:17:20;101307.22;;;10.75;100.00
42587;BME280;28216;53.362;-6.288;2023-04-27T00:19:46;101304.16;;;10.80;100.00
42587;BME280;28216;53.362;-6.288;2023-04-27T00:22:11;101302.75;;;10.86;100.00
42587;BME280;28216;53.362;-6.288;2023-04-27T00:24:38;101301.09;;;10.85;100.00
42587;BME280;28216;53.362;-6.288;2023-04-27T00:27:03;101309.50;;;10.88;100.00
42587;BME280;28216;53.362;-6.288;2023-04-27T00:29:29;101306.72;;;10.90;100.00
42587;BME280;28216;53.362;-6.288;2023-04-27T00:31:55;101305.69;;;10.82;100.00
42587;BME280;28216;53.362;-6.288;2023-04-27T00:34:20;101302.59;;;10.87;100.00
42587;BME280;28216;53.362;-6.288;2023-04-27T00:36:46;101300.50;;;10.91;100.00
42587;BME280;28216;53.362;-6.288;2023-04-27T00:39:11;101297.06;;;10.90;100.00
42587;BME280;28216;53.362;-6.288;2023-04-27T00:41:37;101305.59;;;10.92;100.00
42587;BME280;28216;53.362;-6.288;2023-04-27T00:44:05;101297.59;;;10.94;100.00
42587;BME280;28216;53.362;-6.288;2023-04-27T00:46:32;101290.78;;;11.01;100.00
42587;BME280;28216;53.362;-6.288;2023-04-27T00:48:57;101287.84;;;11.04;100.00
42587;BME280;28216;53.362;-6.288;2023-04-27T00:51:23;101274.72;;;11.04;100.00
42587;BME280;28216;53.362;-6.288;2023-04-27T00:53:56;101262.59;;;11.03;100.00
42587;BME280;28216;53.362;-6.288;2023-04-27T00:56:22;101259.81;;;11.04;100.00
42587;BME280;28216;53.362;-6.288;2023-04-27T00:58:48;101258.47;;;11.00;100.00
42587;BME280;28216;53.362;-6.288;2023-04-27T01:01:14;101255.00;;;11.00;100.00
42587;BME280;28216;53.362;-6.288;2023-04-27T01:03:39;101247.44;;;10.97;100.00
42587;BME280;28216;53.362;-6.288;2023-04-27T01:06:05;101244.00;;;10.96;100.00
42587;BME280;28216;53.362;-6.288;2023-04-27T01:08:30;101239.06;;;10.93;100.00
42587;BME280;28216;53.362;-6.288;2023-04-27T01:10:56;101243.31;;;10.94;100.00
42587;BME280;28216;53.362;-6.288;2023-04-27T01:13:21;101234.63;;;10.94;100.00
42587;BME280;28216;53.362;-6.288;2023-04-27T01:15:47;101236.44;;;10.93;100.00
42587;BME280;28216;53.362;-6.288;2023-04-27T01:18:12;101233.50;;;10.96;100.00
42587;BME280;28216;53.362;-6.288;2023-04-27T01:20:38;101230.66;;;10.90;100.00
42587;BME280;28216;53.362;-6.288;2023-04-27T01:23:03;101222.47;;;10.93;100.00
42587;BME280;28216;53.362;-6.288;2023-04-27T01:25:29;101220.75;;;10.83;100.00
42587;BME280;28216;53.362;-6.288;2023-04-27T01:27:54;101217.53;;;10.90;100.00
42587;BME280;28216;53.362;-6.288;2023-04-27T01:30:20;101212.28;;;10.90;100.00
42587;BME280;28216;53.362;-6.288;2023-04-27T01:32:49;101200.00;;;10.90;100.00
42587;BME280;28216;53.362;-6.288;2023-04-27T01:35:14;101200.53;;;10.94;100.00
42587;BME280;28216;53.362;-6.288;2023-04-27T01:37:40;101191.69;;;10.95;100.00
42587;BME280;28216;53.362;-6.288;2023-04-27T01:40:06;101197.91;;;10.94;100.00
42587;BME280;28216;53.362;-6.288;2023-04-27T01:42:32;101191.97;;;10.92;100.00
42587;BME280;28216;53.362;-6.288;2023-04-27T01:44:57;101180.59;;;10.83;100.00
42587;BME280;28216;53.362;-6.288;2023-04-27T01:47:25;101179.75;;;10.82;100.00
42587;BME280;28216;53.362;-6.288;2023-04-27T01:49:51;101169.28;;;10.82;100.00
42587;BME280;28216;53.362;-6.288;2023-04-27T01:52:16;101156.31;;;10.81;100.00
42587;BME280;28216;53.362;-6.288;2023-04-27T01:54:41;101156.16;;;10.82;100.00
42587;BME280;28216;53.362;-6.288;2023-04-27T01:57:07;101153.53;;;10.82;100.00
42587;BME280;28216;53.362;-6.288;2023-04-27T01:59:32;101162.09;;;10.67;100.00
42587;BME280;28216;53.362;-6.288;2023-04-27T02:01:58;101160.13;;;10.69;100.00
42587;BME280;28216;53.362;-6.288;2023-04-27T02:04:23;101157.06;;;10.73;100.00
42587;BME280;28216;53.362;-6.288;2023-04-27T02:06:49;101168.38;;;10.74;100.00
42587;BME280;28216;53.362;-6.288;2023-04-27T02:09:14;101157.22;;;10.72;100.00
42587;BME280;28216;53.362;-6.288;2023-04-27T02:11:39;101163.72;;;10.68;100.00
42587;BME280;28216;53.362;-6.288;2023-04-27T02:14:05;101173.47;;;10.75;100.00
42587;BME280;28216;53.362;-6.288;2023-04-27T02:16:30;101167.47;;;10.83;100.00
42587;BME280;28216;53.362;-6.288;2023-04-27T02:18:56;101164.53;;;10.86;100.00
42587;BME280;28216;53.362;-6.288;2023-04-27T02:21:23;101164.19;;;10.81;100.00
42587;BME280;28216;53.362;-6.288;2023-04-27T02:23:48;101161.94;;;10.86;100.00
42587;BME280;28216;53.362;-6.288;2023-04-27T02:26:18;101153.84;;;10.79;100.00
42587;BME280;28216;53.362;-6.288;2023-04-27T02:28:45;101146.19;;;10.86;100.00
42587;BME280;28216;53.362;-6.288;2023-04-27T02:31:12;101138.00;;;10.89;100.00
42587;BME280;28216;53.362;-6.288;2023-04-27T02:33:38;101142.97;;;10.92;100.00
42587;BME280;28216;53.362;-6.288;2023-04-27T02:36:04;101139.19;;;10.95;100.00
42587;BME280;28216;53.362;-6.288;2023-04-27T02:38:29;101137.25;;;10.97;100.00
42587;BME280;28216;53.362;-6.288;2023-04-27T02:40:55;101139.06;;;10.96;100.00
42587;BME280;28216;53.362;-6.288;2023-04-27T02:43:21;101134.56;;;10.89;100.00
42587;BME280;28216;53.362;-6.288;2023-04-27T02:45:46;101124.97;;;10.79;100.00
42587;BME280;28216;53.362;-6.288;2023-04-27T02:48:12;101122.28;;;10.89;100.00
42587;BME280;28216;53.362;-6.288;2023-04-27T02:50:41;101122.13;;;10.91;100.00
42587;BME280;28216;53.362;-6.288;2023-04-27T02:53:07;101123.84;;;10.82;100.00
42587;BME280;28216;53.362;-6.288;2023-04-27T02:55:33;101122.28;;;10.89;100.00
42587;BME280;28216;53.362;-6.288;2023-04-27T02:57:58;101122.13;;;10.91;100.00
42587;BME280;28216;53.362;-6.288;2023-04-27T03:00:24;101113.13;;;10.93;100.00
42587;BME280;28216;53.362;-6.288;2023-04-27T03:02:49;101106.59;;;10.97;100.00
42587;BME280;28216;53.362;-6.288;2023-04-27T03:05:15;101108.09;;;11.00;100.00
42587;BME280;28216;53.362;-6.288;2023-04-27T03:07:41;101114.97;;;11.01;100.00
42587;BME280;28216;53.362;-6.288;2023-04-27T03:10:06;101102.69;;;11.01;100.00
42587;BME280;28216;53.362;-6.288;2023-04-27T03:12:32;101105.56;;;10.90;100.00
42587;BME280;28216;53.362;-6.288;2023-04-27T03:14:57;101102.41;;;10.87;100.00
42587;BME280;28216;53.362;-6.288;2023-04-27T03:17:24;101104.53;;;10.83;100.00
42587;BME280;28216;53.362;-6.288;2023-04-27T03:19:49;101104.31;;;10.76;100.00
42587;BME280;28216;53.362;-6.288;2023-04-27T03:22:15;101098.38;;;10.74;100.00
42587;BME280;28216;53.362;-6.288;2023-04-27T03:24:40;101104.47;;;10.75;100.00
42587;BME280;28216;53.362;-6.288;2023-04-27T03:27:06;101105.13;;;10.77;100.00
42587;BME280;28216;53.362;-6.288;2023-04-27T03:29:32;101099.72;;;10.78;100.00
42587;BME280;28216;53.362;-6.288;2023-04-27T03:31:57;101089.81;;;10.90;100.00
42587;BME280;28216;53.362;-6.288;2023-04-27T03:34:23;101085.19;;;10.84;100.00
42587;BME280;28216;53.362;-6.288;2023-04-27T03:36:48;101086.88;;;10.93;100.00
42587;BME280;28216;53.362;-6.288;2023-04-27T03:39:14;101085.59;;;10.97;100.00
42587;BME280;28216;53.362;-6.288;2023-04-27T03:41:39;101078.72;;;10.96;100.00
42587;BME280;28216;53.362;-6.288;2023-04-27T03:44:04;101064.97;;;11.02;100.00
42587;BME280;28216;53.362;-6.288;2023-04-27T03:46:31;101066.25;;;10.98;100.00
42587;BME280;28216;53.362;-6.288;2023-04-27T03:48:56;101074.66;;;11.02;100.00
42587;BME280;28216;53.362;-6.288;2023-04-27T03:51:22;101061.13;;;10.89;100.00
42587;BME280;28216;53.362;-6.288;2023-04-27T03:53:47;101061.78;;;10.91;100.00
42587;BME280;28216;53.362;-6.288;2023-04-27T03:56:13;101067.75;;;11.01;100.00
42587;BME280;28216;53.362;-6.288;2023-04-27T03:58:38;101061.84;;;10.99;100.00
42587;BME280;28216;53.362;-6.288;2023-04-27T04:01:04;101057.63;;;11.06;100.00
42587;BME280;28216;53.362;-6.288;2023-04-27T04:03:29;101057.41;;;10.99;100.00
42587;BME280;28216;53.362;-6.288;2023-04-27T04:05:55;101053.59;;;10.94;100.00
42587;BME280;28216;53.362;-6.288;2023-04-27T04:08:20;101060.97;;;10.90;100.00
42587;BME280;28216;53.362;-6.288;2023-04-27T04:10:46;101053.44;;;10.95;100.00
42587;BME280;28216;53.362;-6.288;2023-04-27T04:13:11;101052.78;;;10.93;100.00
42587;BME280;28216;53.362;-6.288;2023-04-27T04:15:37;101049.50;;;10.91;100.00
42587;BME280;28216;53.362;-6.288;2023-04-27T04:18:02;101054.59;;;10.93;100.00
42587;BME280;28216;53.362;-6.288;2023-04-27T04:20:27;101045.38;;;10.89;100.00
42587;BME280;28216;53.362;-6.288;2023-04-27T04:22:53;101055.19;;;10.87;100.00
42587;BME280;28216;53.362;-6.288;2023-04-27T04:25:18;101063.84;;;10.79;100.00
42587;BME280;28216;53.362;-6.288;2023-04-27T04:27:45;101047.28;;;10.78;100.00
42587;BME280;28216;53.362;-6.288;2023-04-27T04:30:12;101045.22;;;10.64;100.00
42587;BME280;28216;53.362;-6.288;2023-04-27T04:32:38;101043.25;;;10.66;100.00
42587;BME280;28216;53.362;-6.288;2023-04-27T04:35:05;101041.38;;;10.76;100.00
42587;BME280;28216;53.362;-6.288;2023-04-27T04:37:34;101032.22;;;10.80;100.00
42587;BME280;28216;53.362;-6.288;2023-04-27T04:40:03;101030.41;;;10.81;100.00
42587;BME280;28216;53.362;-6.288;2023-04-27T04:42:33;101030.50;;;10.71;100.00
42587;BME280;28216;53.362;-6.288;2023-04-27T04:44:59;101028.97;;;10.61;100.00
42587;BME280;28216;53.362;-6.288;2023-04-27T04:47:25;101029.09;;;10.59;100.00
42587;BME280;28216;53.362;-6.288;2023-04-27T04:49:51;101033.47;;;10.50;100.00
42587;BME280;28216;53.362;-6.288;2023-04-27T04:52:16;101036.75;;;10.53;100.00
42587;BME280;28216;53.362;-6.288;2023-04-27T04:54:42;101030.19;;;10.48;100.00
42587;BME280;28216;53.362;-6.288;2023-04-27T04:57:07;101036.16;;;10.59;100.00
42587;BME280;28216;53.362;-6.288;2023-04-27T04:59:32;101033.84;;;10.56;100.00
42587;BME280;28216;53.362;-6.288;2023-04-27T05:01:59;101026.50;;;10.59;100.00
42587;BME280;28216;53.362;-6.288;2023-04-27T05:04:24;101029.00;;;10.69;100.00
42587;BME280;28216;53.362;-6.288;2023-04-27T05:06:50;101025.41;;;10.70;100.00
42587;BME280;28216;53.362;-6.288;2023-04-27T05:09:17;101023.94;;;10.67;100.00
42587;BME280;28216;53.362;-6.288;2023-04-27T05:11:42;101027.69;;;10.65;100.00
42587;BME280;28216;53.362;-6.288;2023-04-27T05:14:08;101031.47;;;10.70;100.00
42587;BME280;28216;53.362;-6.288;2023-04-27T05:16:33;101024.34;;;10.80;100.00
42587;BME280;28216;53.362;-6.288;2023-04-27T05:18:58;101025.63;;;10.76;100.00
42587;BME280;28216;53.362;-6.288;2023-04-27T05:21:24;101026.66;;;10.83;100.00
42587;BME280;28216;53.362;-6.288;2023-04-27T05:23:50;101027.44;;;10.76;100.00
42587;BME280;28216;53.362;-6.288;2023-04-27T05:26:17;101034.78;;;10.72;100.00
42587;BME280;28216;53.362;-6.288;2023-04-27T05:28:43;101036.88;;;10.69;100.00
42587;BME280;28216;53.362;-6.288;2023-04-27T05:31:09;101029.22;;;10.75;100.00
42587;BME280;28216;53.362;-6.288;2023-04-27T05:33:35;101031.75;;;10.85;100.00
42587;BME280;28216;53.362;-6.288;2023-04-27T05:36:19;101028.31;;;10.85;100.00
42587;BME280;28216;53.362;-6.288;2023-04-27T05:38:49;101019.00;;;10.90;100.00
42587;BME280;28216;53.362;-6.288;2023-04-27T05:41:15;101003.28;;;10.98;100.00
42587;BME280;28216;53.362;-6.288;2023-04-27T05:43:40;101000.97;;;10.95;100.00
42587;BME280;28216;53.362;-6.288;2023-04-27T05:46:05;100998.88;;;10.99;100.00
42587;BME280;28216;53.362;-6.288;2023-04-27T05:48:31;101005.50;;;10.85;100.00
42587;BME280;28216;53.362;-6.288;2023-04-27T05:51:01;101002.13;;;10.93;100.00
42587;BME280;28216;53.362;-6.288;2023-04-27T05:53:27;101003.44;;;10.97;100.00
42587;BME280;28216;53.362;-6.288;2023-04-27T05:55:52;101006.59;;;11.00;100.00
42587;BME280;28216;53.362;-6.288;2023-04-27T05:58:18;101001.69;;;11.05;100.00
42587;BME280;28216;53.362;-6.288;2023-04-27T06:00:44;101002.31;;;10.99;100.00
42587;BME280;28216;53.362;-6.288;2023-04-27T06:03:09;100995.47;;;11.06;100.00
42587;BME280;28216;53.362;-6.288;2023-04-27T06:05:35;100993.66;;;11.07;100.00
42587;BME280;28216;53.362;-6.288;2023-04-27T06:08:03;101007.56;;;10.99;100.00
42587;BME280;28216;53.362;-6.288;2023-04-27T06:10:28;101006.66;;;10.82;100.00
42587;BME280;28216;53.362;-6.288;2023-04-27T06:12:54;101005.19;;;10.88;100.00
42587;BME280;28216;53.362;-6.288;2023-04-27T06:15:22;101004.84;;;10.83;100.00
42587;BME280;28216;53.362;-6.288;2023-04-27T06:17:48;100991.38;;;10.78;100.00
42587;BME280;28216;53.362;-6.288;2023-04-27T06:20:13;101005.78;;;10.74;100.00
42587;BME280;28216;53.362;-6.288;2023-04-27T06:22:39;100992.34;;;10.77;100.00
42587;BME280;28216;53.362;-6.288;2023-04-27T06:25:05;100982.00;;;10.75;100.00
42587;BME280;28216;53.362;-6.288;2023-04-27T06:27:33;100981.56;;;10.80;100.00
42587;BME280;28216;53.362;-6.288;2023-04-27T06:30:01;100966.78;;;10.79;100.00
42587;BME280;28216;53.362;-6.288;2023-04-27T06:32:27;100973.31;;;10.75;100.00
42587;BME280;28216;53.362;-6.288;2023-04-27T06:34:52;100974.31;;;10.74;100.00
42587;BME280;28216;53.362;-6.288;2023-04-27T06:37:18;100973.63;;;10.72;100.00
42587;BME280;28216;53.362;-6.288;2023-04-27T06:39:43;100966.69;;;10.89;100.00
42587;BME280;28216;53.362;-6.288;2023-04-27T06:42:09;100960.56;;;10.80;100.00
42587;BME280;28216;53.362;-6.288;2023-04-27T06:44:35;100972.19;;;10.77;100.00
42587;BME280;28216;53.362;-6.288;2023-04-27T06:47:03;100961.50;;;10.71;100.00
42587;BME280;28216;53.362;-6.288;2023-04-27T06:49:29;100971.31;;;10.69;100.00
42587;BME280;28216;53.362;-6.288;2023-04-27T06:51:55;100971.84;;;10.72;100.00
42587;BME280;28216;53.362;-6.288;2023-04-27T06:54:21;100977.22;;;10.71;100.00
42587;BME280;28216;53.362;-6.288;2023-04-27T06:56:46;100971.31;;;10.69;100.00
42587;BME280;28216;53.362;-6.288;2023-04-27T06:59:14;100967.47;;;10.55;100.00
42587;BME280;28216;53.362;-6.288;2023-04-27T07:01:42;100967.38;;;10.65;100.00
42587;BME280;28216;53.362;-6.288;2023-04-27T07:04:07;100954.75;;;10.68;100.00
42587;BME280;28216;53.362;-6.288;2023-04-27T07:06:33;100967.56;;;10.71;100.00
42587;BME280;28216;53.362;-6.288;2023-04-27T07:08:58;100967.88;;;10.68;100.00
42587;BME280;28216;53.362;-6.288;2023-04-27T07:11:25;100959.53;;;10.73;100.00
42587;BME280;28216;53.362;-6.288;2023-04-27T07:13:50;100952.19;;;10.76;100.00
42587;BME280;28216;53.362;-6.288;2023-04-27T07:16:17;100954.84;;;10.85;100.00
42587;BME280;28216;53.362;-6.288;2023-04-27T07:18:43;100962.22;;;10.81;100.00
42587;BME280;28216;53.362;-6.288;2023-04-27T07:21:08;100964.88;;;10.89;100.00
42587;BME280;28216;53.362;-6.288;2023-04-27T07:23:34;100975.16;;;10.82;100.00
42587;BME280;28216;53.362;-6.288;2023-04-27T07:25:59;100966.44;;;10.74;100.00
42587;BME280;28216;53.362;-6.288;2023-04-27T07:28:27;100970.09;;;10.81;100.00
42587;BME280;28216;53.362;-6.288;2023-04-27T07:30:52;100968.78;;;10.85;100.00
42587;BME280;28216;53.362;-6.288;2023-04-27T07:33:18;100967.19;;;10.92;100.00
42587;BME280;28216;53.362;-6.288;2023-04-27T07:35:43;100965.03;;;10.88;100.00
42587;BME280;28216;53.362;-6.288;2023-04-27T07:38:09;100962.75;;;10.93;100.00
42587;BME280;28216;53.362;-6.288;2023-04-27T07:40:34;100965.91;;;10.96;100.00
42587;BME280;28216;53.362;-6.288;2023-04-27T07:43:00;100958.84;;;10.97;100.00
42587;BME280;28216;53.362;-6.288;2023-04-27T07:45:26;100962.75;;;10.93;100.00
42587;BME280;28216;53.362;-6.288;2023-04-27T07:47:57;100966.56;;;10.98;100.00
42587;BME280;28216;53.362;-6.288;2023-04-27T07:50:27;100969.19;;;10.98;100.00
42587;BME280;28216;53.362;-6.288;2023-04-27T07:52:54;100970.16;;;10.97;100.00
42587;BME280;28216;53.362;-6.288;2023-04-27T07:55:21;100963.28;;;10.96;100.00
42587;BME280;28216;53.362;-6.288;2023-04-27T07:57:51;100947.41;;;11.06;100.00
42587;BME280;28216;53.362;-6.288;2023-04-27T08:00:17;100951.00;;;11.05;100.00
42587;BME280;28216;53.362;-6.288;2023-04-27T08:02:43;100963.16;;;11.06;100.00
42587;BME280;28216;53.362;-6.288;2023-04-27T08:05:08;100950.94;;;10.89;100.00
42587;BME280;28216;53.362;-6.288;2023-04-27T08:07:34;100944.75;;;10.98;100.00
42587;BME280;28216;53.362;-6.288;2023-04-27T08:09:59;100954.25;;;10.99;100.00
42587;BME280;28216;53.362;-6.288;2023-04-27T08:12:25;100947.22;;;10.99;100.00
42587;BME280;28216;53.362;-6.288;2023-04-27T08:14:51;100949.69;;;11.01;100.00
42587;BME280;28216;53.362;-6.288;2023-04-27T08:17:17;100951.19;;;11.11;100.00
42587;BME280;28216;53.362;-6.288;2023-04-27T08:19:42;100947.56;;;11.04;100.00
42587;BME280;28216;53.362;-6.288;2023-04-27T08:22:08;100951.13;;;10.95;100.00
42587;BME280;28216;53.362;-6.288;2023-04-27T08:24:34;100940.97;;;10.92;100.00
42587;BME280;28216;53.362;-6.288;2023-04-27T08:27:00;100940.88;;;11.10;100.00
42587;BME280;28216;53.362;-6.288;2023-04-27T08:29:27;100932.84;;;11.11;100.00
42587;BME280;28216;53.362;-6.288;2023-04-27T08:31:53;100921.81;;;11.00;100.00
42587;BME280;28216;53.362;-6.288;2023-04-27T08:34:19;100918.53;;;11.06;100.00
42587;BME280;28216;53.362;-6.288;2023-04-27T08:36:44;100922.28;;;10.95;100.00
42587;BME280;28216;53.362;-6.288;2023-04-27T08:39:09;100925.06;;;10.94;100.00
42587;BME280;28216;53.362;-6.288;2023-04-27T08:41:35;100910.03;;;11.12;100.00
42587;BME280;28216;53.362;-6.288;2023-04-27T08:44:01;100907.91;;;11.07;100.00
42587;BME280;28216;53.362;-6.288;2023-04-27T08:46:30;100906.00;;;11.18;100.00
42587;BME280;28216;53.362;-6.288;2023-04-27T08:48:56;100911.94;;;11.36;100.00
42587;BME280;28216;53.362;-6.288;2023-04-27T08:51:22;100912.91;;;11.27;100.00
42587;BME280;28216;53.362;-6.288;2023-04-27T08:53:51;100899.78;;;11.35;100.00
42587;BME280;28216;53.362;-6.288;2023-04-27T08:56:19;100897.00;;;11.36;100.00
42587;BME280;28216;53.362;-6.288;2023-04-27T08:58:47;100892.34;;;11.14;100.00
42587;BME280;28216;53.362;-6.288;2023-04-27T09:01:13;100886.31;;;11.22;100.00
42587;BME280;28216;53.362;-6.288;2023-04-27T09:03:38;100888.78;;;11.31;100.00
42587;BME280;28216;53.362;-6.288;2023-04-27T09:06:04;100892.06;;;11.25;100.00
42587;BME280;28216;53.362;-6.288;2023-04-27T09:08:43;100892.59;;;11.37;100.00
42587;BME280;28216;53.362;-6.288;2023-04-27T09:11:10;100888.50;;;11.42;100.00
42587;BME280;28216;53.362;-6.288;2023-04-27T09:13:36;100884.22;;;11.33;100.00
42587;BME280;28216;53.362;-6.288;2023-04-27T09:16:02;100878.13;;;11.25;100.00
42587;BME280;28216;53.362;-6.288;2023-04-27T09:18:28;100882.66;;;11.14;100.00
42587;BME280;28216;53.362;-6.288;2023-04-27T09:20:54;100884.00;;;11.19;100.00
42587;BME280;28216;53.362;-6.288;2023-04-27T09:26:00;100876.38;;;10.99;100.00
42587;BME280;28216;53.362;-6.288;2023-04-27T09:28:27;100875.91;;;11.04;100.00
42587;BME280;28216;53.362;-6.288;2023-04-27T09:31:01;100885.28;;;11.14;100.00
42587;BME280;28216;53.362;-6.288;2023-04-27T09:33:29;100875.63;;;11.15;100.00
42587;BME280;28216;53.362;-6.288;2023-04-27T09:35:56;100873.00;;;11.15;100.00
42587;BME280;28216;53.362;-6.288;2023-04-27T09:38:22;100879.44;;;11.29;100.00
42587;BME280;28216;53.362;-6.288;2023-04-27T09:40:50;100864.84;;;11.34;100.00
42587;BME280;28216;53.362;-6.288;2023-04-27T09:43:15;100862.88;;;11.28;100.00
42587;BME280;28216;53.362;-6.288;2023-04-27T09:45:42;100858.94;;;11.40;100.00
42587;BME280;28216;53.362;-6.288;2023-04-27T09:48:09;100858.63;;;11.35;100.00
42587;BME280;28216;53.362;-6.288;2023-04-27T09:50:35;100860.91;;;11.30;100.00
42587;BME280;28216;53.362;-6.288;2023-04-27T09:53:06;100855.63;;;11.22;100.00
42587;BME280;28216;53.362;-6.288;2023-04-27T09:55:42;100856.63;;;11.29;100.00
42587;BME280;28216;53.362;-6.288;2023-04-27T10:01:20;100854.66;;;11.31;100.00
42587;BME280;28216;53.362;-6.288;2023-04-27T10:04:05;100848.91;;;11.20;100.00
42587;BME280;28216;53.362;-6.288;2023-04-27T10:08:59;100849.59;;;11.30;100.00
42587;BME280;28216;53.362;-6.288;2023-04-27T10:11:41;100840.88;;;11.21;100.00
42587;BME280;28216;53.362;-6.288;2023-04-27T10:14:17;100841.53;;;11.15;100.00
42587;BME280;28216;53.362;-6.288;2023-04-27T10:16:54;100848.13;;;11.35;100.00
42587;BME280;28216;53.362;-6.288;2023-04-27T10:19:22;100835.31;;;11.40;100.00
42587;BME280;28216;53.362;-6.288;2023-04-27T10:21:58;100834.84;;;11.37;100.00
42587;BME280;28216;53.362;-6.288;2023-04-27T10:24:41;100831.84;;;11.24;100.00
42587;BME280;28216;53.362;-6.288;2023-04-27T10:27:11;100833.34;;;11.26;100.00
42587;BME280;28216;53.362;-6.288;2023-04-27T10:29:42;100827.09;;;11.19;100.00
42587;BME280;28216;53.362;-6.288;2023-04-27T10:32:11;100839.72;;;11.24;100.00
42587;BME280;28216;53.362;-6.288;2023-04-27T10:34:36;100834.97;;;11.19;100.00
42587;BME280;28216;53.362;-6.288;2023-04-27T10:37:10;100833.81;;;11.22;100.00
42587;BME280;28216;53.362;-6.288;2023-04-27T10:39:40;100827.28;;;11.58;100.00
42587;BME280;28216;53.362;-6.288;2023-04-27T10:42:07;100819.56;;;11.73;100.00
42587;BME280;28216;53.362;-6.288;2023-04-27T10:44:34;100815.19;;;11.90;100.00
42587;BME280;28216;53.362;-6.288;2023-04-27T10:47:10;100824.16;;;11.71;100.00
42587;BME280;28216;53.362;-6.288;2023-04-27T10:49:37;100817.28;;;11.62;100.00
42587;BME280;28216;53.362;-6.288;2023-04-27T10:52:02;100822.53;;;11.86;100.00
42587;BME280;28216;53.362;-6.288;2023-04-27T10:54:30;100819.59;;;11.81;100.00
42587;BME280;28216;53.362;-6.288;2023-04-27T10:57:06;100817.78;;;11.82;100.00
42587;BME280;28216;53.362;-6.288;2023-04-27T10:59:32;100815.78;;;11.75;100.00
42587;BME280;28216;53.362;-6.288;2023-04-27T11:01:58;100809.88;;;11.73;100.00
42587;BME280;28216;53.362;-6.288;2023-04-27T11:04:34;100808.72;;;11.76;100.00
42587;BME280;28216;53.362;-6.288;2023-04-27T11:07:00;100809.91;;;11.57;100.00
42587;BME280;28216;53.362;-6.288;2023-04-27T11:09:28;100805.94;;;11.69;100.00
42587;BME280;28216;53.362;-6.288;2023-04-27T11:11:54;100796.13;;;11.96;100.00
42587;BME280;28216;53.362;-6.288;2023-04-27T11:14:19;100799.09;;;11.93;100.00
42587;BME280;28216;53.362;-6.288;2023-04-27T11:16:48;100794.97;;;11.98;100.00
42587;BME280;28216;53.362;-6.288;2023-04-27T11:19:14;100784.44;;;12.06;100.00
42587;BME280;28216;53.362;-6.288;2023-04-27T11:21:40;100785.44;;;12.05;100.00
42587;BME280;28216;53.362;-6.288;2023-04-27T11:24:07;100776.06;;;12.11;100.00
42587;BME280;28216;53.362;-6.288;2023-04-27T11:26:34;100775.38;;;12.17;100.00
42587;BME280;28216;53.362;-6.288;2023-04-27T11:29:03;100767.75;;;12.38;100.00
42587;BME280;28216;53.362;-6.288;2023-04-27T11:31:40;100767.41;;;12.41;100.00
42587;BME280;28216;53.362;-6.288;2023-04-27T11:34:08;100770.41;;;12.30;100.00
42587;BME280;28216;53.362;-6.288;2023-04-27T11:36:34;100771.66;;;12.43;100.00
42587;BME280;28216;53.362;-6.288;2023-04-27T11:39:00;100760.53;;;12.32;100.00
42587;BME280;28216;53.362;-6.288;2023-04-27T11:41:35;100764.09;;;12.48;100.00
42587;BME280;28216;53.362;-6.288;2023-04-27T11:44:07;100766.44;;;12.34;100.00
42587;BME280;28216;53.362;-6.288;2023-04-27T11:46:36;100763.47;;;12.37;100.00
42587;BME280;28216;53.362;-6.288;2023-04-27T11:49:03;100759.13;;;12.53;100.00
42587;BME280;28216;53.362;-6.288;2023-04-27T11:51:30;100760.13;;;12.52;100.00
42587;BME280;28216;53.362;-6.288;2023-04-27T11:54:04;100770.03;;;12.41;100.00
42587;BME280;28216;53.362;-6.288;2023-04-27T11:56:38;100754.97;;;12.27;100.00
42587;BME280;28216;53.362;-6.288;2023-04-27T11:59:05;100750.16;;;12.39;100.00
42587;BME280;28216;53.362;-6.288;2023-04-27T12:01:32;100750.41;;;12.52;100.00
42587;BME280;28216;53.362;-6.288;2023-04-27T12:04:00;100745.16;;;12.52;100.00
42587;BME280;28216;53.362;-6.288;2023-04-27T12:06:27;100752.59;;;12.40;100.00
42587;BME280;28216;53.362;-6.288;2023-04-27T12:08:56;100747.66;;;12.06;100.00
42587;BME280;28216;53.362;-6.288;2023-04-27T12:11:25;100744.84;;;12.08;100.00
42587;BME280;28216;53.362;-6.288;2023-04-27T12:13:54;100743.56;;;11.96;100.00
42587;BME280;28216;53.362;-6.288;2023-04-27T12:16:20;100743.72;;;12.02;100.00
42587;BME280;28216;53.362;-6.288;2023-04-27T12:18:48;100751.25;;;12.05;100.00
42587;BME280;28216;53.362;-6.288;2023-04-27T12:21:13;100751.63;;;11.94;100.00
42587;BME280;28216;53.362;-6.288;2023-04-27T12:23:39;100754.41;;;12.01;100.00
42587;BME280;28216;53.362;-6.288;2023-04-27T12:26:05;100754.41;;;12.01;100.00
42587;BME280;28216;53.362;-6.288;2023-04-27T12:28:31;100751.44;;;12.04;100.00
42587;BME280;28216;53.362;-6.288;2023-04-27T12:30:56;100753.66;;;12.23;100.00
42587;BME280;28216;53.362;-6.288;2023-04-27T12:33:22;100748.03;;;12.34;100.00
42587;BME280;28216;53.362;-6.288;2023-04-27T12:35:47;100745.63;;;12.56;100.00